Karina — V2GK2 — position and weather

sailwx.info

Track history (hours):
 
Tides and Currents Weather Stations Pressure Air Temp Water Temp Dewpoint Dewpoint Depression Visibility Wind Speed Wind Dir Waves Ship Positions

Karina

Last reported at 2018-Jun-23 01:42 UTC. Time now 2018-Jun-23 06:04 UTC.
Position N 36°49' E 005°54'.

Length 131 m; draft 8.5 m.

Type: Ship. MMSI: 304010853.

Date/timePositionNaut miles runAvg speedWind from/ knotsBaromVisibWave heightAir tempDewpointWater temp
2018-Jun-23 01:42N 36°49' E 005°54'0 0.0
2018-Jun-23 01:21N 36°49' E 005°54'0 0.0
2018-Jun-23 01:00N 36°49' E 005°54'  
2018-Jun-20 09:52N 40°19' E 003°10'613.0
2018-Jun-20 09:25N 40°24' E 003°05'6213.4
2018-Jun-20 04:49N 41°12' E 002°15'414.2
2018-Jun-20 04:30N 41°16' E 002°11'3 6.6
2018-Jun-20 04:00N 41°19' E 002°09'0 0.4
2018-Jun-20 03:30N 41°19' E 002°09'0 0.0
2018-Jun-20 03:00N 41°19' E 002°09'0 0.0
2018-Jun-20 02:30N 41°19' E 002°09'0 0.0
2018-Jun-20 02:00N 41°19' E 002°09'0 0.0
2018-Jun-20 01:30N 41°19' E 002°09'0 0.0
2018-Jun-20 01:00N 41°19' E 002°09'0 0.0
2018-Jun-20 00:27N 41°19' E 002°09'0 0.0
2018-Jun-20 00:00N 41°19' E 002°09'0 0.0
2018-Jun-19 23:27N 41°19' E 002°09'0 0.0
2018-Jun-19 23:00N 41°19' E 002°09'0 0.0
2018-Jun-19 22:30N 41°19' E 002°09'0 0.0
2018-Jun-19 22:00N 41°19' E 002°09'0 0.0
2018-Jun-19 21:30N 41°19' E 002°09'0 0.0
2018-Jun-19 21:00N 41°19' E 002°09'0 0.0
2018-Jun-19 20:30N 41°19' E 002°09'0 0.0
2018-Jun-19 20:00N 41°19' E 002°09'0 0.0
2018-Jun-19 19:30N 41°19' E 002°09'0 0.0
2018-Jun-19 19:00N 41°19' E 002°09'0 0.0
2018-Jun-19 18:30N 41°19' E 002°09'0 0.0
2018-Jun-19 18:00N 41°19' E 002°09'0 0.0
2018-Jun-19 17:30N 41°19' E 002°09'0 0.0
2018-Jun-19 17:01N 41°19' E 002°09'0 0.0
2018-Jun-19 16:30N 41°19' E 002°09'0 0.0
2018-Jun-19 16:00N 41°19' E 002°09'0 0.0
2018-Jun-19 15:30N 41°19' E 002°09'0 0.0
2018-Jun-19 15:00N 41°19' E 002°09'0 0.0
2018-Jun-19 14:30N 41°19' E 002°09'0 0.0
2018-Jun-19 14:01N 41°19' E 002°09'1 2.2
2018-Jun-19 13:31N 41°19' E 002°11'3 5.9
2018-Jun-19 13:00N 41°17' E 002°14'1 1.2
2018-Jun-19 12:30N 41°18' E 002°14'713.2
2018-Jun-19 12:01N 41°21' E 002°22'612.8
2018-Jun-19 11:30N 41°24' E 002°30'3 7.0
2018-Jun-19 11:00N 41°25' E 002°34'612.8
2018-Jun-19 10:30N 41°27' E 002°42'15613.4
2018-Jun-18 22:48N 43°17' E 005°12'413.9
2018-Jun-18 22:30N 43°20' E 005°17'3 5.3
2018-Jun-18 22:00N 43°21' E 005°20'0 0.0
2018-Jun-18 21:28N 43°21' E 005°20'0 0.0
2018-Jun-18 20:58N 43°21' E 005°20'0 0.0
2018-Jun-18 20:28N 43°21' E 005°20'0 0.0
2018-Jun-18 19:52N 43°21' E 005°20'0 0.0
2018-Jun-18 19:28N 43°21' E 005°20'0 0.0
2018-Jun-18 18:58N 43°21' E 005°20'0 0.0
2018-Jun-18 18:28N 43°21' E 005°20'0 0.0
2018-Jun-18 17:58N 43°21' E 005°20'0 0.0
2018-Jun-18 17:28N 43°21' E 005°20'0 0.0
2018-Jun-18 16:58N 43°21' E 005°20'0 0.0
2018-Jun-18 16:22N 43°21' E 005°20'0 0.0
2018-Jun-18 07:04N 43°21' E 005°20'0 0.0
2018-Jun-18 06:55N 43°21' E 005°20'0 0.0
2018-Jun-18 06:16N 43°21' E 005°20'0 0.0
2018-Jun-18 05:58N 43°21' E 005°20'0 0.0
2018-Jun-18 05:22N 43°21' E 005°20'0 0.0
2018-Jun-18 04:58N 43°21' E 005°20'0 0.0
2018-Jun-18 04:28N 43°21' E 005°20'0 0.0
2018-Jun-18 03:58N 43°21' E 005°20'0 0.0
2018-Jun-18 03:22N 43°21' E 005°20'0 0.0
2018-Jun-18 02:55N 43°21' E 005°20'0 0.0
2018-Jun-18 02:28N 43°21' E 005°20'0 0.0
2018-Jun-18 01:58N 43°21' E 005°20'0 0.0
2018-Jun-18 01:16N 43°21' E 005°20'0 0.0
2018-Jun-18 00:58N 43°21' E 005°20'0 0.0
2018-Jun-18 00:28N 43°21' E 005°20'0 0.0
2018-Jun-17 23:52N 43°21' E 005°20'0 0.0
2018-Jun-17 23:28N 43°21' E 005°20'0 0.0
2018-Jun-17 22:58N 43°21' E 005°20'0 0.0
2018-Jun-17 22:28N 43°21' E 005°20'0 0.0
2018-Jun-17 21:58N 43°21' E 005°20'0 0.0
2018-Jun-17 21:28N 43°21' E 005°20'0 0.0
2018-Jun-17 20:58N 43°21' E 005°20'0 0.0
2018-Jun-17 20:10N 43°21' E 005°20'0 0.0
2018-Jun-17 19:58N 43°21' E 005°20'0 0.0
2018-Jun-17 19:28N 43°21' E 005°20'0 0.0
2018-Jun-17 18:55N 43°21' E 005°20'0 0.0
2018-Jun-17 18:28N 43°21' E 005°20'0 0.0
2018-Jun-17 17:58N 43°21' E 005°20'0 0.0
2018-Jun-17 17:28N 43°21' E 005°20'0 0.0
2018-Jun-17 16:43N 43°21' E 005°20'0 0.0
2018-Jun-17 16:28N 43°21' E 005°20'0 0.0
2018-Jun-17 15:52N 43°21' E 005°20'0 0.0
2018-Jun-17 15:28N 43°21' E 005°20'0 0.0
2018-Jun-17 15:00N 43°21' E 005°20'1 1.4
2018-Jun-17 14:30N 43°21' E 005°19'1 0.6
2018-Jun-17 12:19N 43°20' E 005°18'0 0.0
2018-Jun-17 11:49N 43°20' E 005°18'0 0.0
2018-Jun-17 09:04N 43°20' E 005°18'0 0.1
2018-Jun-17 08:52N 43°20' E 005°18'0 0.0
2018-Jun-17 07:04N 43°20' E 005°18'0 0.2
2018-Jun-17 06:57N 43°20' E 005°18'0 0.0
2018-Jun-17 02:03N 43°20' E 005°18'0 0.0
2018-Jun-17 00:48N 43°20' E 005°18'0 0.0
2018-Jun-16 23:03N 43°20' E 005°18'0 0.1
2018-Jun-16 22:57N 43°20' E 005°18'0 0.0
2018-Jun-16 18:39N 43°20' E 005°18'0 0.0
2018-Jun-16 18:09N 43°20' E 005°18'0 0.0
2018-Jun-16 17:39N 43°20' E 005°18'0 0.0
2018-Jun-16 17:27N 43°20' E 005°18'0 0.0
2018-Jun-16 16:57N 43°20' E 005°18'0 0.1
2018-Jun-16 16:30N 43°20' E 005°18'0 0.9
2018-Jun-16 16:00N 43°21' E 005°18'5 9.3
2018-Jun-16 15:30N 43°18' E 005°13'712.3
2018-Jun-16 14:58N 43°11' E 005°11'3413.5
2018-Jun-16 12:26N 42°40' E 005°30'613.4
2018-Jun-16 12:00N 42°35' E 005°33'  
Track history (hours):
 
Tides and Currents Weather Stations Pressure Air Temp Water Temp Dewpoint Dewpoint Depression Visibility Wind Speed Wind Dir Waves Ship Positions

Karina

Last reported at 2018-Jun-23 01:42 UTC. Time now 2018-Jun-23 06:04 UTC.
Position N 36°49' E 005°54'.

Length 131 m; draft 8.5 m.

Type: Ship. MMSI: 304010853.

Date/timePositionNaut miles runAvg speedWind from/ knotsBaromVisibWave heightAir tempDewpointWater temp
2018-Jun-23 01:42N 36°49' E 005°54'0 0.0
2018-Jun-23 01:21N 36°49' E 005°54'0 0.0
2018-Jun-23 01:00N 36°49' E 005°54'  
2018-Jun-20 09:52N 40°19' E 003°10'613.0
2018-Jun-20 09:25N 40°24' E 003°05'6213.4
2018-Jun-20 04:49N 41°12' E 002°15'414.2
2018-Jun-20 04:30N 41°16' E 002°11'3 6.6
2018-Jun-20 04:00N 41°19' E 002°09'0 0.4
2018-Jun-20 03:30N 41°19' E 002°09'0 0.0
2018-Jun-20 03:00N 41°19' E 002°09'0 0.0
2018-Jun-20 02:30N 41°19' E 002°09'0 0.0
2018-Jun-20 02:00N 41°19' E 002°09'0 0.0
2018-Jun-20 01:30N 41°19' E 002°09'0 0.0
2018-Jun-20 01:00N 41°19' E 002°09'0 0.0
2018-Jun-20 00:27N 41°19' E 002°09'0 0.0
2018-Jun-20 00:00N 41°19' E 002°09'0 0.0
2018-Jun-19 23:27N 41°19' E 002°09'0 0.0
2018-Jun-19 23:00N 41°19' E 002°09'0 0.0
2018-Jun-19 22:30N 41°19' E 002°09'0 0.0
2018-Jun-19 22:00N 41°19' E 002°09'0 0.0
2018-Jun-19 21:30N 41°19' E 002°09'0 0.0
2018-Jun-19 21:00N 41°19' E 002°09'0 0.0
2018-Jun-19 20:30N 41°19' E 002°09'0 0.0
2018-Jun-19 20:00N 41°19' E 002°09'0 0.0
2018-Jun-19 19:30N 41°19' E 002°09'0 0.0
2018-Jun-19 19:00N 41°19' E 002°09'0 0.0
2018-Jun-19 18:30N 41°19' E 002°09'0 0.0
2018-Jun-19 18:00N 41°19' E 002°09'0 0.0
2018-Jun-19 17:30N 41°19' E 002°09'0 0.0
2018-Jun-19 17:01N 41°19' E 002°09'0 0.0
2018-Jun-19 16:30N 41°19' E 002°09'0 0.0
2018-Jun-19 16:00N 41°19' E 002°09'0 0.0
2018-Jun-19 15:30N 41°19' E 002°09'0 0.0
2018-Jun-19 15:00N 41°19' E 002°09'0 0.0
2018-Jun-19 14:30N 41°19' E 002°09'0 0.0
2018-Jun-19 14:01N 41°19' E 002°09'1 2.2
2018-Jun-19 13:31N 41°19' E 002°11'3 5.9
2018-Jun-19 13:00N 41°17' E 002°14'1 1.2
2018-Jun-19 12:30N 41°18' E 002°14'713.2
2018-Jun-19 12:01N 41°21' E 002°22'612.8
2018-Jun-19 11:30N 41°24' E 002°30'3 7.0
2018-Jun-19 11:00N 41°25' E 002°34'612.8
2018-Jun-19 10:30N 41°27' E 002°42'15613.4
2018-Jun-18 22:48N 43°17' E 005°12'413.9
2018-Jun-18 22:30N 43°20' E 005°17'3 5.3
2018-Jun-18 22:00N 43°21' E 005°20'0 0.0
2018-Jun-18 21:28N 43°21' E 005°20'0 0.0
2018-Jun-18 20:58N 43°21' E 005°20'0 0.0
2018-Jun-18 20:28N 43°21' E 005°20'0 0.0
2018-Jun-18 19:52N 43°21' E 005°20'0 0.0
2018-Jun-18 19:28N 43°21' E 005°20'0 0.0
2018-Jun-18 18:58N 43°21' E 005°20'0 0.0
2018-Jun-18 18:28N 43°21' E 005°20'0 0.0
2018-Jun-18 17:58N 43°21' E 005°20'0 0.0
2018-Jun-18 17:28N 43°21' E 005°20'0 0.0
2018-Jun-18 16:58N 43°21' E 005°20'0 0.0
2018-Jun-18 16:22N 43°21' E 005°20'0 0.0
2018-Jun-18 07:04N 43°21' E 005°20'0 0.0
2018-Jun-18 06:55N 43°21' E 005°20'0 0.0
2018-Jun-18 06:16N 43°21' E 005°20'0 0.0
2018-Jun-18 05:58N 43°21' E 005°20'0 0.0
2018-Jun-18 05:22N 43°21' E 005°20'0 0.0
2018-Jun-18 04:58N 43°21' E 005°20'0 0.0
2018-Jun-18 04:28N 43°21' E 005°20'0 0.0
2018-Jun-18 03:58N 43°21' E 005°20'0 0.0
2018-Jun-18 03:22N 43°21' E 005°20'0 0.0
2018-Jun-18 02:55N 43°21' E 005°20'0 0.0
2018-Jun-18 02:28N 43°21' E 005°20'0 0.0
2018-Jun-18 01:58N 43°21' E 005°20'0 0.0
2018-Jun-18 01:16N 43°21' E 005°20'0 0.0
2018-Jun-18 00:58N 43°21' E 005°20'0 0.0
2018-Jun-18 00:28N 43°21' E 005°20'0 0.0
2018-Jun-17 23:52N 43°21' E 005°20'0 0.0
2018-Jun-17 23:28N 43°21' E 005°20'0 0.0
2018-Jun-17 22:58N 43°21' E 005°20'0 0.0
2018-Jun-17 22:28N 43°21' E 005°20'0 0.0
2018-Jun-17 21:58N 43°21' E 005°20'0 0.0
2018-Jun-17 21:28N 43°21' E 005°20'0 0.0
2018-Jun-17 20:58N 43°21' E 005°20'0 0.0
2018-Jun-17 20:10N 43°21' E 005°20'0 0.0
2018-Jun-17 19:58N 43°21' E 005°20'0 0.0
2018-Jun-17 19:28N 43°21' E 005°20'0 0.0
2018-Jun-17 18:55N 43°21' E 005°20'0 0.0
2018-Jun-17 18:28N 43°21' E 005°20'0 0.0
2018-Jun-17 17:58N 43°21' E 005°20'0 0.0
2018-Jun-17 17:28N 43°21' E 005°20'0 0.0
2018-Jun-17 16:43N 43°21' E 005°20'0 0.0
2018-Jun-17 16:28N 43°21' E 005°20'0 0.0
2018-Jun-17 15:52N 43°21' E 005°20'0 0.0
2018-Jun-17 15:28N 43°21' E 005°20'0 0.0
2018-Jun-17 15:00N 43°21' E 005°20'1 1.4
2018-Jun-17 14:30N 43°21' E 005°19'1 0.6
2018-Jun-17 12:19N 43°20' E 005°18'0 0.0
2018-Jun-17 11:49N 43°20' E 005°18'0 0.0
2018-Jun-17 09:04N 43°20' E 005°18'0 0.1
2018-Jun-17 08:52N 43°20' E 005°18'0 0.0
2018-Jun-17 07:04N 43°20' E 005°18'0 0.2
2018-Jun-17 06:57N 43°20' E 005°18'0 0.0
2018-Jun-17 02:03N 43°20' E 005°18'0 0.0
2018-Jun-17 00:48N 43°20' E 005°18'0 0.0
2018-Jun-16 23:03N 43°20' E 005°18'0 0.1
2018-Jun-16 22:57N 43°20' E 005°18'0 0.0
2018-Jun-16 18:39N 43°20' E 005°18'0 0.0
2018-Jun-16 18:09N 43°20' E 005°18'0 0.0
2018-Jun-16 17:39N 43°20' E 005°18'0 0.0
2018-Jun-16 17:27N 43°20' E 005°18'0 0.0
2018-Jun-16 16:57N 43°20' E 005°18'0 0.1
2018-Jun-16 16:30N 43°20' E 005°18'0 0.9
2018-Jun-16 16:00N 43°21' E 005°18'5 9.3
2018-Jun-16 15:30N 43°18' E 005°13'712.3
2018-Jun-16 14:58N 43°11' E 005°11'3413.5
2018-Jun-16 12:26N 42°40' E 005°30'613.4
2018-Jun-16 12:00N 42°35' E 005°33'  

Dump ship's entire track history